x

Northern Hawaii One - 245nm Ne Of Honolulu Hi (51000) Wave Buoy

12:50am - Wed 20th Sep 2017 All times are HST. -10 hours from GMT.

  • Sig Wave height 6.2ft
  • Swell Direction
  • Peak Period 8s
  • Average Period 6s
  • Wind
    13mph, 18mph gusts
  • Sea Temp 80°f
  • Air Temp 78°f
  • Sea Pressure 1018.3mb
  • Northern Hawaii One - 245nm Ne Of Honolulu Hi
  • Northern Hawaii One - 245nm Ne Of Honolulu Hi

More Historic Weather Station data

Upgrade to MSW Pro to gain access to the past 30 days of data for over 8000 Wavebouys and Weather Stations around the globe.

Join

Comparision Forecast

View Surf forecast
   
Wed 09/20 12:50am 6ft 8s 6s 13 18 mph 1018.3mb 80f 78f
Tue 09/19 11:50pm 6ft 8s 6s 16 18 mph 1018.8mb 80f 78f
10:50pm 6ft 8s 6s 16 18 mph 1019.1mb 80f 79f
9:50pm 6ft 8s 6s 18 20 mph 1019.2mb 80f 79f
8:50pm 6.5ft 8s 6s 18 20 mph 1018.9mb 80f 79f
7:50pm 6ft 8s 6s 18 20 mph 1018mb 80f 79f
6:50pm 7ft 7s 6s 18 22 mph 1017.4mb 80f 79f
5:50pm 6.5ft 7s 6s 20 22 mph 1016.6mb 80f 79f
4:50pm 6ft 9s 6s 18 22 mph 1016.3mb 80f 80f
3:50pm 7ft 8s 6s 18 22 mph 1016mb 80f 79f
2:50pm 6ft 9s  -  18 22 mph 1016.2mb 80f 79f
1:50pm 6ft 8s 5s 18 22 mph 1016.4mb 80f 79f
12:50pm 6.5ft 8s 6s 18 25 mph 1017mb 80f 79f
11:50am 6ft 8s 6s 27 31 mph 1017.3mb 80f 76f
10:50am 6ft 9s 6s 18 22 mph 1017.8mb 80f 79f
9:50am 6ft 8s 6s 16 20 mph 1018mb 80f 79f
8:50am 6ft 8s 6s 18 20 mph 1017.8mb 80f 79f
7:50am 6ft 8s 6s 20 22 mph 1017.5mb 80f 79f
6:50am 6ft 8s 6s 18 20 mph 1017.1mb 80f 79f
5:50am 5.5ft 8s 6s 18 20 mph 1017mb 80f 79f
4:50am 6ft 8s 6s 16 18 mph 1016.8mb 80f 79f
3:50am 6ft 8s 6s 16 20 mph 1016.7mb 80f 78f
2:50am 6ft 8s 6s 18 20 mph 1016.8mb 80f 79f
1:50am 6ft 8s 6s 18 20 mph 1017.2mb 80f 79f
12:50am 6ft 8s 6s 18 22 mph 1017.5mb 80f 79f
Mon 09/18 11:50pm 6ft 8s 5s 20 25 mph 1017.8mb 80f 78f
10:50pm 5.5ft 8s 5s 18 20 mph 1018mb 80f 79f
9:50pm 6ft 8s 6s 20 25 mph 1018.1mb 80f 79f
8:50pm 5.5ft 8s 6s 16 20 mph 1018.4mb 80f 78f
7:50pm 6ft 8s 5s 20 25 mph 1017.8mb 80f 78f
6:50pm 5.5ft 8s 6s 20 25 mph 1017.4mb 80f 79f
5:50pm 6ft 8s 6s 18 22 mph 1016.8mb 80f 79f
4:50pm 6ft 8s 6s 18 20 mph 1016.8mb 80f 79f
3:50pm 6ft 8s 6s 16 20 mph 1016.7mb 80f 79f
2:50pm 6ft 8s 6s 16 20 mph 1016.9mb 80f 78f
1:50pm 6ft 8s 6s 25 29 mph 1016.8mb 80f 78f
12:50pm 6.5ft 8s 6s 18 20 mph 1017.7mb 80f 79f
11:50am 6.5ft 8s 6s 18 22 mph 1018.2mb 80f 79f
10:50am 6ft 8s 6s 16 20 mph 1018.9mb 80f 79f
9:50am 6ft 8s 6s 18 22 mph 1019.2mb 80f 79f
8:50am 6ft 8s 6s 18 20 mph 1019.2mb 80f 79f
7:50am 7ft 8s 6s 16 20 mph 1018.8mb 80f 79f
6:50am 7ft 8s 6s 18 22 mph 1018.3mb 80f 79f
5:50am 6.5ft 8s 6s 18 22 mph 1017.9mb 80f 78f
4:50am 6.5ft 8s 6s 18 22 mph 1017.6mb 80f 79f
3:50am 7ft 8s 6s 16 20 mph 1017.5mb 80f 78f
2:50am 7ft 8s 6s 18 22 mph 1017.6mb 80f 79f
1:50am 7ft 8s 6s 18 22 mph 1018.1mb 80f 79f
12:50am 7ft 8s 5s 16 20 mph 1018.9mb 80f 76f
Sun 09/17 11:50pm 6.5ft 8s 6s 18 22 mph 1019mb 80f 78f
10:50pm 7ft 7s 6s 22 27 mph 1019.1mb 80f 79f
9:50pm 7ft 8s 6s 20 27 mph 1019.3mb 80f 79f
8:50pm 7ft 8s 6s 22 27 mph 1019mb 80f 80f
7:50pm 7ft 8s 6s 20 25 mph 1018.5mb 80f 80f
6:50pm 6.5ft 8s 5s 20 25 mph 1018.2mb 80f 80f
5:50pm 7ft 7s 6s 22 25 mph 1017.7mb 80f 80f
4:50pm 7ft 7s  -  20 25 mph 1017.5mb 80f 80f
3:50pm 7ft 7s 6s 22 27 mph 1017.4mb 80f 80f
2:50pm 7ft 7s 5s 22 25 mph 1017.6mb 80f 80f
1:50pm 7ft 7s 6s 20 25 mph 1018.1mb 80f 80f
12:50pm 6.5ft 7s 5s 22 27 mph 1018.7mb 80f 80f
11:50am 6ft 7s 6s 20 25 mph 1019.4mb 80f 80f
10:50am 6ft 6s 6s 20 27 mph 1020mb 80f 80f
9:50am 6.5ft 7s 5s 20 22 mph 1020.4mb 80f 79f
8:50am 6ft 7s 5s 22 27 mph 1020.5mb 80f 78f
7:50am 5.5ft 7s 5s 22 27 mph 1019.9mb 80f 80f
6:50am 5ft 7s 5s 13 18 mph 1019.8mb 80f 79f
5:50am 5ft 7s 5s 18 22 mph 1019.4mb 80f 79f
4:50am 5ft 7s 5s 20 25 mph 1018.9mb 80f 79f
3:50am 5ft 7s 5s 18 20 mph 1018.8mb 80f 79f
2:50am 5.5ft 8s 5s 16 20 mph 1018.8mb 80f 79f
1:50am 5ft 6s 5s 18 20 mph 1019.2mb 80f 79f
12:50am 5ft 10s 5s 18 22 mph 1019.5mb 80f 79f
Sat 09/16 11:50pm 5ft 7s 5s 18 22 mph 1019.9mb 80f 79f
10:50pm 4.5ft 7s 5s 20 25 mph 1019.9mb 80f 80f
9:50pm 4.5ft 7s 5s 18 20 mph 1020.3mb 80f 80f
8:50pm 4.5ft 8s 5s 18 20 mph 1019.8mb 80f 80f
7:50pm 4.5ft 7s 5s 16 20 mph 1019mb 80f 80f
6:50pm 4.5ft 7s 5s 13 18 mph 1018mb 80f 79f
5:50pm 4.5ft 6s 5s 13 16 mph 1017.9mb 80f 78f
4:50pm 4.5ft 10s 5s 16 18 mph 1017.5mb 80f 79f
3:50pm 4.5ft 10s 5s 18 20 mph 1017.4mb 80f 80f
2:50pm 4.5ft 5s 5s 16 18 mph 1017.6mb 80f 80f
1:50pm 4.5ft 6s 5s 16 20 mph 1017.8mb 80f 80f
12:50pm 5ft 6s 5s 16 18 mph 1018.5mb 80f 80f
11:50am 5ft 6s 5s 16 20 mph 1019mb 80f 80f